sensor_id;sensor_type;location;lat;lon;timestamp;temperature;humidity
435;DHT22;204;48.942;9.256;2022-12-18T00:00:47;-8.90;1.00
435;DHT22;204;48.942;9.256;2022-12-18T00:03:14;-8.90;1.00
435;DHT22;204;48.942;9.256;2022-12-18T00:05:50;-8.90;1.00
435;DHT22;204;48.942;9.256;2022-12-18T00:08:17;-8.90;1.00
435;DHT22;204;48.942;9.256;2022-12-18T00:10:43;-8.90;1.00
435;DHT22;204;48.942;9.256;2022-12-18T00:13:09;-8.90;1.00
435;DHT22;204;48.942;9.256;2022-12-18T00:15:35;-8.90;1.00
435;DHT22;204;48.942;9.256;2022-12-18T00:18:00;-8.90;1.00
435;DHT22;204;48.942;9.256;2022-12-18T00:20:26;-8.90;1.00
435;DHT22;204;48.942;9.256;2022-12-18T00:22:53;-8.90;1.00
435;DHT22;204;48.942;9.256;2022-12-18T00:25:18;-9.00;1.00
435;DHT22;204;48.942;9.256;2022-12-18T00:27:44;-9.00;1.00
435;DHT22;204;48.942;9.256;2022-12-18T00:30:10;-9.10;1.00
435;DHT22;204;48.942;9.256;2022-12-18T00:32:36;-9.10;1.00
435;DHT22;204;48.942;9.256;2022-12-18T00:35:03;-9.10;1.00
435;DHT22;204;48.942;9.256;2022-12-18T00:37:28;-9.20;1.00
435;DHT22;204;48.942;9.256;2022-12-18T00:39:54;-9.20;1.00
435;DHT22;204;48.942;9.256;2022-12-18T00:42:19;-9.20;1.00
435;DHT22;204;48.942;9.256;2022-12-18T00:45:04;-9.30;1.00
435;DHT22;204;48.942;9.256;2022-12-18T00:47:29;-9.30;1.00
435;DHT22;204;48.942;9.256;2022-12-18T00:49:55;-9.20;1.00
435;DHT22;204;48.942;9.256;2022-12-18T00:52:20;-9.20;1.00
435;DHT22;204;48.942;9.256;2022-12-18T00:54:46;-9.20;1.00
435;DHT22;204;48.942;9.256;2022-12-18T00:57:11;-9.10;1.00
435;DHT22;204;48.942;9.256;2022-12-18T00:59:37;-9.20;1.00
435;DHT22;204;48.942;9.256;2022-12-18T01:02:02;-9.20;1.00
435;DHT22;204;48.942;9.256;2022-12-18T01:04:31;-9.10;1.00
435;DHT22;204;48.942;9.256;2022-12-18T01:06:57;-9.10;1.00
435;DHT22;204;48.942;9.256;2022-12-18T01:09:22;-9.10;1.00
435;DHT22;204;48.942;9.256;2022-12-18T01:11:48;-9.10;1.00
435;DHT22;204;48.942;9.256;2022-12-18T01:14:13;-9.10;1.00
435;DHT22;204;48.942;9.256;2022-12-18T01:16:39;-9.10;1.00
435;DHT22;204;48.942;9.256;2022-12-18T01:19:04;-9.10;1.00
435;DHT22;204;48.942;9.256;2022-12-18T01:21:30;-9.00;1.00
435;DHT22;204;48.942;9.256;2022-12-18T01:23:56;-9.00;1.00
435;DHT22;204;48.942;9.256;2022-12-18T01:26:23;-9.00;1.00
435;DHT22;204;48.942;9.256;2022-12-18T01:28:48;-9.10;1.00
435;DHT22;204;48.942;9.256;2022-12-18T01:31:20;-9.10;1.00
435;DHT22;204;48.942;9.256;2022-12-18T01:33:50;-9.00;1.00
435;DHT22;204;48.942;9.256;2022-12-18T01:36:24;-9.00;1.00
435;DHT22;204;48.942;9.256;2022-12-18T01:38:51;-9.00;1.00
435;DHT22;204;48.942;9.256;2022-12-18T01:41:21;-9.00;1.00
435;DHT22;204;48.942;9.256;2022-12-18T01:43:57;-9.00;1.00
435;DHT22;204;48.942;9.256;2022-12-18T01:46:26;-9.00;1.00
435;DHT22;204;48.942;9.256;2022-12-18T01:48:56;-9.00;1.00
435;DHT22;204;48.942;9.256;2022-12-18T01:51:22;-9.00;1.00
435;DHT22;204;48.942;9.256;2022-12-18T01:53:48;-9.00;1.00
435;DHT22;204;48.942;9.256;2022-12-18T01:56:18;-9.00;1.00
435;DHT22;204;48.942;9.256;2022-12-18T02:01:17;-9.00;1.00
435;DHT22;204;48.942;9.256;2022-12-18T02:03:44;-9.00;1.00
435;DHT22;204;48.942;9.256;2022-12-18T02:06:16;-9.00;1.00
435;DHT22;204;48.942;9.256;2022-12-18T02:16:52;-8.90;1.00
435;DHT22;204;48.942;9.256;2022-12-18T02:27:05;-8.80;1.00
435;DHT22;204;48.942;9.256;2022-12-18T02:29:36;-8.80;1.00
435;DHT22;204;48.942;9.256;2022-12-18T02:32:08;-8.90;1.00
435;DHT22;204;48.942;9.256;2022-12-18T02:34:38;-8.80;1.00
435;DHT22;204;48.942;9.256;2022-12-18T02:37:06;-8.80;1.00
435;DHT22;204;48.942;9.256;2022-12-18T02:39:35;-8.80;1.00
435;DHT22;204;48.942;9.256;2022-12-18T02:42:02;-8.80;1.00
435;DHT22;204;48.942;9.256;2022-12-18T02:44:49;-8.70;1.00
435;DHT22;204;48.942;9.256;2022-12-18T02:47:18;-8.70;1.00
435;DHT22;204;48.942;9.256;2022-12-18T02:58:18;-8.60;1.00
435;DHT22;204;48.942;9.256;2022-12-18T03:00:53;-8.60;1.00
435;DHT22;204;48.942;9.256;2022-12-18T03:03:31;-8.60;1.00
435;DHT22;204;48.942;9.256;2022-12-18T03:06:04;-8.60;1.00
435;DHT22;204;48.942;9.256;2022-12-18T03:08:38;-8.60;1.00
435;DHT22;204;48.942;9.256;2022-12-18T03:11:08;-8.70;1.00
435;DHT22;204;48.942;9.256;2022-12-18T03:13:48;-8.70;1.00
435;DHT22;204;48.942;9.256;2022-12-18T03:16:24;-8.70;1.00
435;DHT22;204;48.942;9.256;2022-12-18T03:18:58;-8.70;1.00
435;DHT22;204;48.942;9.256;2022-12-18T03:21:47;-8.60;1.00
435;DHT22;204;48.942;9.256;2022-12-18T03:24:15;-8.60;1.00
435;DHT22;204;48.942;9.256;2022-12-18T03:26:45;-8.60;1.00
435;DHT22;204;48.942;9.256;2022-12-18T03:29:45;-8.50;1.00
435;DHT22;204;48.942;9.256;2022-12-18T03:32:11;-8.50;1.00
435;DHT22;204;48.942;9.256;2022-12-18T03:34:40;-8.50;1.00
435;DHT22;204;48.942;9.256;2022-12-18T03:37:07;-8.60;1.00
435;DHT22;204;48.942;9.256;2022-12-18T03:39:34;-8.60;1.00
435;DHT22;204;48.942;9.256;2022-12-18T03:42:25;-8.60;1.00
435;DHT22;204;48.942;9.256;2022-12-18T03:52:42;-8.70;1.00
435;DHT22;204;48.942;9.256;2022-12-18T03:55:09;-8.70;1.00
435;DHT22;204;48.942;9.256;2022-12-18T03:57:36;-8.70;1.00
435;DHT22;204;48.942;9.256;2022-12-18T04:00:09;-8.70;1.00
435;DHT22;204;48.942;9.256;2022-12-18T04:02:38;-8.70;1.00
435;DHT22;204;48.942;9.256;2022-12-18T04:05:06;-8.60;1.00
435;DHT22;204;48.942;9.256;2022-12-18T04:07:32;-8.60;1.00
435;DHT22;204;48.942;9.256;2022-12-18T04:10:00;-8.70;1.00
435;DHT22;204;48.942;9.256;2022-12-18T04:12:28;-8.70;1.00
435;DHT22;204;48.942;9.256;2022-12-18T04:14:54;-8.70;1.00
435;DHT22;204;48.942;9.256;2022-12-18T04:17:20;-8.70;1.00
435;DHT22;204;48.942;9.256;2022-12-18T04:19:45;-8.70;1.00
435;DHT22;204;48.942;9.256;2022-12-18T04:22:11;-8.70;1.00
435;DHT22;204;48.942;9.256;2022-12-18T04:24:37;-8.80;1.00
435;DHT22;204;48.942;9.256;2022-12-18T04:27:03;-8.80;1.00
435;DHT22;204;48.942;9.256;2022-12-18T04:29:28;-8.90;1.00
435;DHT22;204;48.942;9.256;2022-12-18T04:31:54;-8.90;1.00
435;DHT22;204;48.942;9.256;2022-12-18T04:34:20;-8.90;1.00
435;DHT22;204;48.942;9.256;2022-12-18T04:36:45;-9.00;1.00
435;DHT22;204;48.942;9.256;2022-12-18T04:39:11;-9.10;1.00
435;DHT22;204;48.942;9.256;2022-12-18T04:41:37;-9.10;1.00
435;DHT22;204;48.942;9.256;2022-12-18T04:44:02;-9.20;1.00
435;DHT22;204;48.942;9.256;2022-12-18T04:46:28;-9.20;1.00
435;DHT22;204;48.942;9.256;2022-12-18T04:48:53;-9.30;1.00
435;DHT22;204;48.942;9.256;2022-12-18T04:51:19;-9.30;1.00
435;DHT22;204;48.942;9.256;2022-12-18T04:53:45;-9.30;1.00
435;DHT22;204;48.942;9.256;2022-12-18T04:56:12;-9.40;1.00
435;DHT22;204;48.942;9.256;2022-12-18T04:58:39;-9.40;1.00
435;DHT22;204;48.942;9.256;2022-12-18T05:01:05;-9.40;1.00
435;DHT22;204;48.942;9.256;2022-12-18T05:03:31;-9.50;1.00
435;DHT22;204;48.942;9.256;2022-12-18T05:05:57;-9.50;1.00
435;DHT22;204;48.942;9.256;2022-12-18T05:08:23;-9.50;1.00
435;DHT22;204;48.942;9.256;2022-12-18T05:10:48;-9.60;1.00
435;DHT22;204;48.942;9.256;2022-12-18T05:13:14;-9.70;1.00
435;DHT22;204;48.942;9.256;2022-12-18T05:15:40;-9.70;1.00
435;DHT22;204;48.942;9.256;2022-12-18T05:18:07;-9.70;1.00
435;DHT22;204;48.942;9.256;2022-12-18T05:20:32;-9.70;1.00
435;DHT22;204;48.942;9.256;2022-12-18T05:22:58;-9.70;1.00
435;DHT22;204;48.942;9.256;2022-12-18T05:25:24;-9.60;1.00
435;DHT22;204;48.942;9.256;2022-12-18T05:27:49;-9.60;1.00
435;DHT22;204;48.942;9.256;2022-12-18T05:30:15;-9.60;1.00
435;DHT22;204;48.942;9.256;2022-12-18T05:32:42;-9.60;1.00
435;DHT22;204;48.942;9.256;2022-12-18T05:35:09;-9.50;1.00
435;DHT22;204;48.942;9.256;2022-12-18T05:37:35;-9.50;1.00
435;DHT22;204;48.942;9.256;2022-12-18T05:40:02;-9.50;1.00
435;DHT22;204;48.942;9.256;2022-12-18T05:42:28;-9.50;1.00
435;DHT22;204;48.942;9.256;2022-12-18T05:44:53;-9.50;1.00
435;DHT22;204;48.942;9.256;2022-12-18T05:47:19;-9.50;1.00
435;DHT22;204;48.942;9.256;2022-12-18T05:49:44;-9.40;1.00
435;DHT22;204;48.942;9.256;2022-12-18T05:52:10;-9.50;1.00
435;DHT22;204;48.942;9.256;2022-12-18T05:54:36;-9.40;1.00
435;DHT22;204;48.942;9.256;2022-12-18T05:57:01;-9.40;1.00
435;DHT22;204;48.942;9.256;2022-12-18T05:59:27;-9.40;1.00
435;DHT22;204;48.942;9.256;2022-12-18T06:01:52;-9.40;1.00
435;DHT22;204;48.942;9.256;2022-12-18T06:04:18;-9.40;1.00
435;DHT22;204;48.942;9.256;2022-12-18T06:06:43;-9.40;1.00
435;DHT22;204;48.942;9.256;2022-12-18T06:09:09;-9.40;1.00
435;DHT22;204;48.942;9.256;2022-12-18T06:11:36;-9.40;1.00
435;DHT22;204;48.942;9.256;2022-12-18T06:14:03;-9.40;1.00
435;DHT22;204;48.942;9.256;2022-12-18T06:16:29;-9.40;1.00
435;DHT22;204;48.942;9.256;2022-12-18T06:18:59;-9.40;1.00
435;DHT22;204;48.942;9.256;2022-12-18T06:21:26;-9.40;1.00
435;DHT22;204;48.942;9.256;2022-12-18T06:23:51;-9.40;1.00
435;DHT22;204;48.942;9.256;2022-12-18T06:26:17;-9.40;1.00
435;DHT22;204;48.942;9.256;2022-12-18T06:28:42;-9.40;1.00
435;DHT22;204;48.942;9.256;2022-12-18T06:31:09;-9.40;1.00
435;DHT22;204;48.942;9.256;2022-12-18T06:33:35;-9.40;1.00
435;DHT22;204;48.942;9.256;2022-12-18T06:38:27;-9.30;1.00
435;DHT22;204;48.942;9.256;2022-12-18T06:40:53;-9.40;1.00
435;DHT22;204;48.942;9.256;2022-12-18T06:43:18;-9.40;1.00
435;DHT22;204;48.942;9.256;2022-12-18T06:45:44;-9.40;1.00
435;DHT22;204;48.942;9.256;2022-12-18T06:48:10;-9.40;1.00
435;DHT22;204;48.942;9.256;2022-12-18T06:50:35;-9.40;1.00
435;DHT22;204;48.942;9.256;2022-12-18T06:53:01;-9.40;1.00
435;DHT22;204;48.942;9.256;2022-12-18T06:55:26;-9.40;1.00
435;DHT22;204;48.942;9.256;2022-12-18T06:57:52;-9.40;1.00
435;DHT22;204;48.942;9.256;2022-12-18T07:00:18;-9.40;1.00
435;DHT22;204;48.942;9.256;2022-12-18T07:02:43;-9.40;1.00
435;DHT22;204;48.942;9.256;2022-12-18T07:05:09;-9.40;1.00
435;DHT22;204;48.942;9.256;2022-12-18T07:07:35;-9.40;1.00
435;DHT22;204;48.942;9.256;2022-12-18T07:10:00;-9.40;1.00
435;DHT22;204;48.942;9.256;2022-12-18T07:12:29;-9.50;1.00
435;DHT22;204;48.942;9.256;2022-12-18T07:14:54;-9.40;1.00
435;DHT22;204;48.942;9.256;2022-12-18T07:17:20;-9.40;1.00
435;DHT22;204;48.942;9.256;2022-12-18T07:19:46;-9.40;1.00
435;DHT22;204;48.942;9.256;2022-12-18T07:22:11;-9.40;1.00
435;DHT22;204;48.942;9.256;2022-12-18T07:24:37;-9.40;1.00
435;DHT22;204;48.942;9.256;2022-12-18T07:27:02;-9.30;1.00
435;DHT22;204;48.942;9.256;2022-12-18T07:29:28;-9.30;1.00
435;DHT22;204;48.942;9.256;2022-12-18T07:31:54;-9.30;1.00
435;DHT22;204;48.942;9.256;2022-12-18T07:34:19;-9.30;1.00
435;DHT22;204;48.942;9.256;2022-12-18T07:36:45;-9.30;1.00
435;DHT22;204;48.942;9.256;2022-12-18T07:39:11;-9.20;1.00
435;DHT22;204;48.942;9.256;2022-12-18T07:41:37;-9.20;1.00
435;DHT22;204;48.942;9.256;2022-12-18T07:44:03;-9.10;1.00
435;DHT22;204;48.942;9.256;2022-12-18T07:46:28;-9.10;1.00
435;DHT22;204;48.942;9.256;2022-12-18T07:48:54;-9.10;1.00
435;DHT22;204;48.942;9.256;2022-12-18T07:51:19;-9.00;1.00
435;DHT22;204;48.942;9.256;2022-12-18T07:53:45;-9.00;1.00
435;DHT22;204;48.942;9.256;2022-12-18T07:56:12;-8.90;1.00
435;DHT22;204;48.942;9.256;2022-12-18T07:58:38;-8.80;1.00
435;DHT22;204;48.942;9.256;2022-12-18T08:01:09;-8.80;1.00
435;DHT22;204;48.942;9.256;2022-12-18T08:03:36;-8.70;1.00
435;DHT22;204;48.942;9.256;2022-12-18T08:06:04;-8.60;1.00
435;DHT22;204;48.942;9.256;2022-12-18T08:08:30;-8.60;1.00
435;DHT22;204;48.942;9.256;2022-12-18T08:10:58;-8.50;1.00
435;DHT22;204;48.942;9.256;2022-12-18T08:13:24;-8.40;1.00
435;DHT22;204;48.942;9.256;2022-12-18T08:16:01;-8.30;1.00
435;DHT22;204;48.942;9.256;2022-12-18T08:18:27;-8.30;1.00
435;DHT22;204;48.942;9.256;2022-12-18T08:20:54;-8.10;1.00
435;DHT22;204;48.942;9.256;2022-12-18T08:23:19;-8.00;1.00
435;DHT22;204;48.942;9.256;2022-12-18T08:25:45;-7.90;1.00
435;DHT22;204;48.942;9.256;2022-12-18T08:28:11;-7.80;1.00
435;DHT22;204;48.942;9.256;2022-12-18T08:30:36;-7.70;1.00
435;DHT22;204;48.942;9.256;2022-12-18T08:33:02;-7.60;1.00
435;DHT22;204;48.942;9.256;2022-12-18T08:35:28;-7.40;1.00
435;DHT22;204;48.942;9.256;2022-12-18T08:37:53;-7.30;1.00
435;DHT22;204;48.942;9.256;2022-12-18T08:40:19;-7.20;1.00
435;DHT22;204;48.942;9.256;2022-12-18T08:42:45;-7.10;1.00
435;DHT22;204;48.942;9.256;2022-12-18T08:45:29;-7.00;1.00
435;DHT22;204;48.942;9.256;2022-12-18T08:47:54;-6.90;1.00
435;DHT22;204;48.942;9.256;2022-12-18T08:50:20;-6.80;1.00
435;DHT22;204;48.942;9.256;2022-12-18T08:52:46;-6.70;1.00
435;DHT22;204;48.942;9.256;2022-12-18T08:55:11;-6.60;1.00
435;DHT22;204;48.942;9.256;2022-12-18T08:57:37;-6.50;1.00
435;DHT22;204;48.942;9.256;2022-12-18T09:00:04;-6.40;1.00
435;DHT22;204;48.942;9.256;2022-12-18T09:02:29;-6.30;1.00
435;DHT22;204;48.942;9.256;2022-12-18T09:04:55;-6.30;1.00
435;DHT22;204;48.942;9.256;2022-12-18T09:07:20;-6.20;1.00
435;DHT22;204;48.942;9.256;2022-12-18T09:09:46;-6.10;1.00
435;DHT22;204;48.942;9.256;2022-12-18T09:12:12;-6.00;1.00
435;DHT22;204;48.942;9.256;2022-12-18T09:14:39;-5.90;1.00
435;DHT22;204;48.942;9.256;2022-12-18T09:17:05;-5.80;1.00
435;DHT22;204;48.942;9.256;2022-12-18T09:19:30;-5.70;1.00
435;DHT22;204;48.942;9.256;2022-12-18T09:21:56;-5.70;1.00
435;DHT22;204;48.942;9.256;2022-12-18T09:24:22;-5.60;1.00
435;DHT22;204;48.942;9.256;2022-12-18T09:26:47;-5.50;1.00
435;DHT22;204;48.942;9.256;2022-12-18T09:29:14;-5.30;1.00
435;DHT22;204;48.942;9.256;2022-12-18T09:31:40;-5.20;1.00
435;DHT22;204;48.942;9.256;2022-12-18T09:34:05;-5.10;1.00
435;DHT22;204;48.942;9.256;2022-12-18T09:36:31;-5.10;1.00
435;DHT22;204;48.942;9.256;2022-12-18T09:38:56;-5.00;1.00
435;DHT22;204;48.942;9.256;2022-12-18T09:44:19;-4.80;1.00
435;DHT22;204;48.942;9.256;2022-12-18T09:46:53;-4.70;1.00
435;DHT22;204;48.942;9.256;2022-12-18T09:49:24;-4.60;1.00
435;DHT22;204;48.942;9.256;2022-12-18T09:52:32;-4.50;1.00
435;DHT22;204;48.942;9.256;2022-12-18T09:57:28;-4.20;1.00
435;DHT22;204;48.942;9.256;2022-12-18T09:59:58;-4.10;1.00
435;DHT22;204;48.942;9.256;2022-12-18T10:02:30;-3.90;1.00
435;DHT22;204;48.942;9.256;2022-12-18T10:08:01;-3.60;1.00
435;DHT22;204;48.942;9.256;2022-12-18T10:10:41;-3.50;1.00
435;DHT22;204;48.942;9.256;2022-12-18T10:26:50;-2.60;1.00
435;DHT22;204;48.942;9.256;2022-12-18T10:29:17;-2.50;1.00
435;DHT22;204;48.942;9.256;2022-12-18T10:31:43;-2.40;1.00
435;DHT22;204;48.942;9.256;2022-12-18T10:34:12;-2.40;1.00
435;DHT22;204;48.942;9.256;2022-12-18T10:36:38;-2.30;1.00
435;DHT22;204;48.942;9.256;2022-12-18T10:39:19;-2.20;1.00
435;DHT22;204;48.942;9.256;2022-12-18T10:41:46;-2.20;1.00
435;DHT22;204;48.942;9.256;2022-12-18T10:44:22;-2.10;1.00
435;DHT22;204;48.942;9.256;2022-12-18T10:46:51;-2.00;1.00
435;DHT22;204;48.942;9.256;2022-12-18T10:49:28;-2.00;1.00
435;DHT22;204;48.942;9.256;2022-12-18T10:52:20;-1.90;1.00
435;DHT22;204;48.942;9.256;2022-12-18T10:57:16;-1.70;1.00
435;DHT22;204;48.942;9.256;2022-12-18T10:59:53;-1.70;1.00
435;DHT22;204;48.942;9.256;2022-12-18T11:02:35;-1.60;1.00
435;DHT22;204;48.942;9.256;2022-12-18T11:05:02;-1.50;1.00
435;DHT22;204;48.942;9.256;2022-12-18T11:07:50;-1.40;1.00
435;DHT22;204;48.942;9.256;2022-12-18T11:10:18;-1.20;1.00
435;DHT22;204;48.942;9.256;2022-12-18T11:12:44;-1.00;1.00
435;DHT22;204;48.942;9.256;2022-12-18T11:15:23;-0.90;1.00
435;DHT22;204;48.942;9.256;2022-12-18T11:17:52;-0.70;1.00
435;DHT22;204;48.942;9.256;2022-12-18T11:20:32;-0.60;1.00
435;DHT22;204;48.942;9.256;2022-12-18T11:23:05;-0.40;1.00
435;DHT22;204;48.942;9.256;2022-12-18T11:25:32;-0.20;1.00
435;DHT22;204;48.942;9.256;2022-12-18T11:31:19;0.10;1.00
435;DHT22;204;48.942;9.256;2022-12-18T11:36:34;0.30;1.00
435;DHT22;204;48.942;9.256;2022-12-18T11:39:09;0.40;1.00
435;DHT22;204;48.942;9.256;2022-12-18T11:41:52;0.50;1.00
435;DHT22;204;48.942;9.256;2022-12-18T11:47:15;0.50;1.00
435;DHT22;204;48.942;9.256;2022-12-18T11:49:44;0.60;1.00
435;DHT22;204;48.942;9.256;2022-12-18T11:52:24;0.60;1.00
435;DHT22;204;48.942;9.256;2022-12-18T11:54:52;0.60;1.00
435;DHT22;204;48.942;9.256;2022-12-18T12:02:38;0.70;1.00
435;DHT22;204;48.942;9.256;2022-12-18T12:08:01;0.80;1.00
435;DHT22;204;48.942;9.256;2022-12-18T12:27:09;0.90;1.00
435;DHT22;204;48.942;9.256;2022-12-18T12:35:25;1.00;1.00
435;DHT22;204;48.942;9.256;2022-12-18T12:37:49;1.10;1.00
435;DHT22;204;48.942;9.256;2022-12-18T12:40:19;1.20;1.00
435;DHT22;204;48.942;9.256;2022-12-18T12:42:52;1.30;1.00
435;DHT22;204;48.942;9.256;2022-12-18T12:48:51;1.30;1.00
435;DHT22;204;48.942;9.256;2022-12-18T12:51:34;1.40;1.00
435;DHT22;204;48.942;9.256;2022-12-18T12:54:03;1.40;1.00
435;DHT22;204;48.942;9.256;2022-12-18T12:59:29;1.40;1.00
435;DHT22;204;48.942;9.256;2022-12-18T13:02:34;1.40;1.00
435;DHT22;204;48.942;9.256;2022-12-18T13:05:01;1.40;1.00
435;DHT22;204;48.942;9.256;2022-12-18T13:07:49;1.40;1.00
435;DHT22;204;48.942;9.256;2022-12-18T13:20:35;1.50;1.00
435;DHT22;204;48.942;9.256;2022-12-18T13:25:46;1.50;1.00
435;DHT22;204;48.942;9.256;2022-12-18T13:34:17;1.40;1.00
435;DHT22;204;48.942;9.256;2022-12-18T13:36:43;1.30;1.00
435;DHT22;204;48.942;9.256;2022-12-18T13:39:22;1.30;1.00
435;DHT22;204;48.942;9.256;2022-12-18T13:42:31;1.30;1.00
435;DHT22;204;48.942;9.256;2022-12-18T13:44:59;1.40;1.00
435;DHT22;204;48.942;9.256;2022-12-18T13:47:34;1.40;1.00
435;DHT22;204;48.942;9.256;2022-12-18T13:50:12;1.50;1.00
435;DHT22;204;48.942;9.256;2022-12-18T13:52:45;1.50;1.00
435;DHT22;204;48.942;9.256;2022-12-18T13:55:18;1.50;1.00
435;DHT22;204;48.942;9.256;2022-12-18T13:57:44;1.50;1.00
435;DHT22;204;48.942;9.256;2022-12-18T14:02:48;1.40;1.00
435;DHT22;204;48.942;9.256;2022-12-18T14:05:29;1.40;1.00
435;DHT22;204;48.942;9.256;2022-12-18T14:08:00;1.30;1.00
435;DHT22;204;48.942;9.256;2022-12-18T14:10:27;1.20;1.00
435;DHT22;204;48.942;9.256;2022-12-18T14:12:53;1.20;1.00
435;DHT22;204;48.942;9.256;2022-12-18T14:17:57;1.20;1.00
435;DHT22;204;48.942;9.256;2022-12-18T14:20:25;1.10;1.00
435;DHT22;204;48.942;9.256;2022-12-18T14:22:51;1.10;1.00
435;DHT22;204;48.942;9.256;2022-12-18T14:27:46;0.90;1.00
435;DHT22;204;48.942;9.256;2022-12-18T14:33:01;0.70;1.00
435;DHT22;204;48.942;9.256;2022-12-18T14:35:27;0.60;1.00
435;DHT22;204;48.942;9.256;2022-12-18T14:37:52;0.50;1.00
435;DHT22;204;48.942;9.256;2022-12-18T14:40:18;0.40;1.00
435;DHT22;204;48.942;9.256;2022-12-18T14:42:43;0.30;1.00
435;DHT22;204;48.942;9.256;2022-12-18T14:45:38;0.20;1.00
435;DHT22;204;48.942;9.256;2022-12-18T14:50:36;0.00;1.00
435;DHT22;204;48.942;9.256;2022-12-18T14:53:02;-0.10;1.00
435;DHT22;204;48.942;9.256;2022-12-18T14:55:28;-0.20;1.00
435;DHT22;204;48.942;9.256;2022-12-18T14:57:55;-0.20;1.00
435;DHT22;204;48.942;9.256;2022-12-18T15:00:23;-0.30;1.00
435;DHT22;204;48.942;9.256;2022-12-18T15:02:53;-0.40;1.00
435;DHT22;204;48.942;9.256;2022-12-18T15:05:28;-0.50;1.00
435;DHT22;204;48.942;9.256;2022-12-18T15:07:57;-0.50;1.00
435;DHT22;204;48.942;9.256;2022-12-18T15:20:52;-1.10;1.00
435;DHT22;204;48.942;9.256;2022-12-18T15:26:06;-1.20;1.00
435;DHT22;204;48.942;9.256;2022-12-18T15:33:41;-1.40;1.00
435;DHT22;204;48.942;9.256;2022-12-18T15:36:12;-1.50;1.00
435;DHT22;204;48.942;9.256;2022-12-18T15:38:38;-1.50;1.00
435;DHT22;204;48.942;9.256;2022-12-18T15:41:04;-1.60;1.00
435;DHT22;204;48.942;9.256;2022-12-18T15:43:30;-1.60;1.00
435;DHT22;204;48.942;9.256;2022-12-18T15:46:06;-1.70;1.00
435;DHT22;204;48.942;9.256;2022-12-18T15:48:40;-1.70;1.00
435;DHT22;204;48.942;9.256;2022-12-18T15:51:15;-1.70;1.00
435;DHT22;204;48.942;9.256;2022-12-18T15:53:41;-1.80;1.00
435;DHT22;204;48.942;9.256;2022-12-18T15:56:14;-1.80;1.00
435;DHT22;204;48.942;9.256;2022-12-18T15:58:59;-1.80;1.00
435;DHT22;204;48.942;9.256;2022-12-18T16:01:30;-1.90;1.00
435;DHT22;204;48.942;9.256;2022-12-18T16:03:56;-1.90;1.00
435;DHT22;204;48.942;9.256;2022-12-18T16:06:22;-1.90;1.00
435;DHT22;204;48.942;9.256;2022-12-18T16:08:48;-1.90;1.00
435;DHT22;204;48.942;9.256;2022-12-18T16:11:26;-1.90;1.00
435;DHT22;204;48.942;9.256;2022-12-18T16:14:25;-2.00;1.00
435;DHT22;204;48.942;9.256;2022-12-18T16:16:56;-2.00;1.00
435;DHT22;204;48.942;9.256;2022-12-18T16:19:23;-2.00;1.00
435;DHT22;204;48.942;9.256;2022-12-18T16:21:50;-2.00;1.00
435;DHT22;204;48.942;9.256;2022-12-18T16:24:28;-2.00;1.00
435;DHT22;204;48.942;9.256;2022-12-18T16:26:55;-2.00;1.00
435;DHT22;204;48.942;9.256;2022-12-18T16:29:21;-2.10;1.00
435;DHT22;204;48.942;9.256;2022-12-18T16:31:50;-2.10;1.00
435;DHT22;204;48.942;9.256;2022-12-18T16:34:30;-2.20;1.00
435;DHT22;204;48.942;9.256;2022-12-18T16:36:57;-2.20;1.00
435;DHT22;204;48.942;9.256;2022-12-18T16:39:24;-2.20;1.00
435;DHT22;204;48.942;9.256;2022-12-18T16:41:50;-2.10;1.00
435;DHT22;204;48.942;9.256;2022-12-18T16:44:15;-2.10;1.00
435;DHT22;204;48.942;9.256;2022-12-18T16:46:41;-2.10;1.00
435;DHT22;204;48.942;9.256;2022-12-18T16:49:14;-2.10;1.00
435;DHT22;204;48.942;9.256;2022-12-18T16:51:40;-2.10;1.00
435;DHT22;204;48.942;9.256;2022-12-18T16:54:06;-2.10;1.00
435;DHT22;204;48.942;9.256;2022-12-18T16:56:32;-2.10;1.00
435;DHT22;204;48.942;9.256;2022-12-18T16:58:59;-2.10;1.00
435;DHT22;204;48.942;9.256;2022-12-18T17:01:28;-2.00;1.00
435;DHT22;204;48.942;9.256;2022-12-18T17:04:00;-2.00;1.00
435;DHT22;204;48.942;9.256;2022-12-18T17:06:27;-2.00;1.00
435;DHT22;204;48.942;9.256;2022-12-18T17:08:57;-2.00;1.00
435;DHT22;204;48.942;9.256;2022-12-18T17:11:24;-2.00;1.00
435;DHT22;204;48.942;9.256;2022-12-18T17:13:51;-2.00;1.00
435;DHT22;204;48.942;9.256;2022-12-18T17:16:17;-2.00;1.00
435;DHT22;204;48.942;9.256;2022-12-18T17:18:42;-2.00;1.00
435;DHT22;204;48.942;9.256;2022-12-18T17:21:09;-1.90;1.00
435;DHT22;204;48.942;9.256;2022-12-18T17:23:35;-2.00;1.00
435;DHT22;204;48.942;9.256;2022-12-18T17:26:02;-2.00;1.00
435;DHT22;204;48.942;9.256;2022-12-18T17:28:29;-2.00;1.00
435;DHT22;204;48.942;9.256;2022-12-18T17:30:55;-1.90;1.00
435;DHT22;204;48.942;9.256;2022-12-18T17:33:22;-1.90;1.00
435;DHT22;204;48.942;9.256;2022-12-18T17:35:48;-2.00;1.00
435;DHT22;204;48.942;9.256;2022-12-18T17:38:14;-1.90;1.00
435;DHT22;204;48.942;9.256;2022-12-18T17:40:40;-1.90;1.00
435;DHT22;204;48.942;9.256;2022-12-18T17:43:07;-1.90;1.00
435;DHT22;204;48.942;9.256;2022-12-18T17:45:39;-1.90;1.00
435;DHT22;204;48.942;9.256;2022-12-18T17:48:06;-1.90;1.00
435;DHT22;204;48.942;9.256;2022-12-18T17:50:33;-1.90;1.00
435;DHT22;204;48.942;9.256;2022-12-18T17:52:59;-1.90;1.00
435;DHT22;204;48.942;9.256;2022-12-18T17:55:25;-1.90;1.00
435;DHT22;204;48.942;9.256;2022-12-18T17:57:51;-1.90;1.00
435;DHT22;204;48.942;9.256;2022-12-18T18:00:16;-1.80;1.00
435;DHT22;204;48.942;9.256;2022-12-18T18:02:43;-1.80;1.00
435;DHT22;204;48.942;9.256;2022-12-18T18:05:08;-1.80;1.00
435;DHT22;204;48.942;9.256;2022-12-18T18:07:34;-1.80;1.00
435;DHT22;204;48.942;9.256;2022-12-18T18:10:00;-1.70;1.00
435;DHT22;204;48.942;9.256;2022-12-18T18:12:25;-1.70;1.00
435;DHT22;204;48.942;9.256;2022-12-18T18:15:10;-1.70;1.00
435;DHT22;204;48.942;9.256;2022-12-18T18:17:35;-1.70;1.00
435;DHT22;204;48.942;9.256;2022-12-18T18:20:01;-1.80;1.00
435;DHT22;204;48.942;9.256;2022-12-18T18:22:27;-1.80;1.00
435;DHT22;204;48.942;9.256;2022-12-18T18:24:52;-1.80;1.00
435;DHT22;204;48.942;9.256;2022-12-18T18:27:18;-1.80;1.00
435;DHT22;204;48.942;9.256;2022-12-18T18:29:44;-1.80;1.00
435;DHT22;204;48.942;9.256;2022-12-18T18:32:09;-1.80;1.00
435;DHT22;204;48.942;9.256;2022-12-18T18:34:35;-1.80;1.00
435;DHT22;204;48.942;9.256;2022-12-18T18:37:01;-1.80;1.00
435;DHT22;204;48.942;9.256;2022-12-18T18:39:28;-1.70;1.00
435;DHT22;204;48.942;9.256;2022-12-18T18:41:54;-1.70;1.00
435;DHT22;204;48.942;9.256;2022-12-18T18:44:20;-1.70;1.00
435;DHT22;204;48.942;9.256;2022-12-18T18:46:46;-1.60;1.00
435;DHT22;204;48.942;9.256;2022-12-18T18:49:12;-1.60;1.00
435;DHT22;204;48.942;9.256;2022-12-18T18:51:39;-1.60;1.00
435;DHT22;204;48.942;9.256;2022-12-18T18:54:05;-1.60;1.00
435;DHT22;204;48.942;9.256;2022-12-18T18:56:31;-1.60;1.00
435;DHT22;204;48.942;9.256;2022-12-18T18:58:57;-1.60;1.00
435;DHT22;204;48.942;9.256;2022-12-18T19:01:23;-1.60;1.00
435;DHT22;204;48.942;9.256;2022-12-18T19:03:50;-1.50;1.00
435;DHT22;204;48.942;9.256;2022-12-18T19:06:24;-1.60;1.00
435;DHT22;204;48.942;9.256;2022-12-18T19:08:51;-1.50;1.00
435;DHT22;204;48.942;9.256;2022-12-18T19:11:18;-1.50;1.00
435;DHT22;204;48.942;9.256;2022-12-18T19:14:08;-1.40;1.00
435;DHT22;204;48.942;9.256;2022-12-18T19:16:34;-1.30;1.00
435;DHT22;204;48.942;9.256;2022-12-18T19:19:00;-1.30;1.00
435;DHT22;204;48.942;9.256;2022-12-18T19:21:26;-1.20;1.00
435;DHT22;204;48.942;9.256;2022-12-18T19:23:53;-1.20;1.00
435;DHT22;204;48.942;9.256;2022-12-18T19:26:19;-1.10;1.00
435;DHT22;204;48.942;9.256;2022-12-18T19:28:45;-1.10;1.00
435;DHT22;204;48.942;9.256;2022-12-18T19:31:13;-1.10;1.00
435;DHT22;204;48.942;9.256;2022-12-18T19:33:41;-1.10;1.00
435;DHT22;204;48.942;9.256;2022-12-18T19:38:39;-1.10;1.00
435;DHT22;204;48.942;9.256;2022-12-18T19:41:06;-1.10;1.00
435;DHT22;204;48.942;9.256;2022-12-18T19:43:33;-1.10;1.00